createdAt,value
2022-10-24T07:09:35.030Z,23.58
2022-10-24T07:12:23.298Z,20.48
2022-10-24T07:15:12.005Z,20.27
2022-10-24T07:17:59.732Z,20.73
2022-10-24T07:20:47.570Z,19.02
2022-10-24T07:23:37.180Z,18.67
2022-10-24T07:26:26.250Z,19.27
2022-10-24T07:54:33.047Z,15.63
2022-10-24T07:57:25.750Z,15.18
2022-10-24T08:00:14.807Z,15.55
2022-10-24T08:03:02.942Z,17.10
2022-10-24T08:05:50.914Z,14.73
2022-10-24T08:22:38.676Z,13.13
2022-10-24T08:25:26.469Z,14.23
2022-10-24T08:28:14.401Z,11.32
2022-10-24T08:31:05.631Z,11.20
2022-10-24T08:33:54.549Z,11.15
2022-10-24T08:36:42.330Z,11.98
2022-10-24T08:39:29.924Z,11.60
2022-10-24T08:42:19.319Z,10.40
2022-10-24T08:48:04.837Z,10.02
2022-10-24T08:50:59.032Z,9.95
2022-10-24T08:53:51.384Z,9.05
2022-10-24T08:56:39.181Z,10.20
2022-10-24T08:59:30.047Z,9.52
2022-10-24T09:02:22.521Z,9.70
2022-10-24T09:48:26.109Z,2.72
2022-10-24T09:51:24.833Z,3.78
2022-10-24T09:54:30.139Z,4.53
2022-10-24T09:57:18.551Z,4.50
2022-10-24T10:00:07.839Z,2.95
2022-10-24T10:03:02.121Z,4.80
2022-10-24T10:05:51.264Z,4.10
2022-10-24T10:08:39.244Z,3.22
2022-10-24T10:11:31.599Z,2.85
2022-10-24T10:14:29.812Z,3.40
2022-10-24T10:20:26.158Z,3.00
2022-10-24T10:23:19.210Z,2.90
2022-10-24T10:26:22.914Z,3.20
2022-10-24T10:29:23.690Z,3.40
2022-10-24T10:32:19.797Z,3.05
2022-10-24T10:35:15.487Z,3.85
2022-10-24T10:38:14.917Z,3.40
2022-10-24T10:41:06.476Z,3.13
2022-10-24T10:44:03.281Z,4.05
2022-10-24T10:47:06.262Z,5.03
2022-10-24T10:49:57.495Z,5.50
2022-10-24T10:52:49.384Z,3.20
2022-10-24T10:55:43.621Z,4.25
2022-10-24T10:58:41.231Z,2.45
2022-10-24T11:01:41.908Z,3.47
2022-10-24T11:04:38.499Z,3.60
2022-10-24T11:07:32.081Z,6.97
2022-10-24T11:10:24.224Z,2.90
2022-10-24T11:13:19.255Z,2.88
2022-10-24T11:16:14.724Z,3.00
2022-10-24T11:19:06.555Z,4.78
2022-10-24T11:21:58.280Z,2.33
2022-10-24T11:24:49.614Z,3.58
2022-10-24T11:27:42.905Z,4.72
2022-10-24T11:30:43.538Z,5.82
2022-10-24T11:33:36.427Z,4.93
2022-10-24T11:36:31.269Z,7.15
2022-10-24T11:39:25.212Z,5.55
2022-10-24T11:42:21.208Z,4.45
2022-10-24T11:45:13.359Z,3.30
2022-10-24T11:48:13.420Z,3.88
2022-10-24T11:51:09.473Z,3.20
2022-10-24T11:54:00.486Z,4.43
2022-10-24T11:56:53.442Z,5.80
2022-10-24T11:59:43.269Z,3.70
2022-10-24T12:02:55.971Z,3.03
2022-10-24T12:06:16.905Z,4.20
2022-10-24T12:09:34.391Z,5.22
2022-10-24T12:12:43.036Z,3.15
2022-10-24T12:15:46.043Z,4.07
2022-10-24T12:18:36.543Z,7.07
2022-10-24T12:21:27.524Z,4.88
2022-10-24T12:24:25.947Z,4.55
2022-10-24T12:27:28.371Z,7.00
2022-10-24T12:30:21.888Z,5.00
2022-10-24T12:33:12.973Z,3.78
2022-10-24T12:36:00.542Z,5.57
2022-10-24T12:39:10.090Z,5.13
2022-10-24T12:41:59.511Z,6.30
2022-10-24T12:44:50.579Z,2.88
2022-10-24T12:47:41.956Z,4.65
2022-10-24T12:51:04.927Z,6.13
2022-10-24T12:54:03.633Z,6.10
2022-10-24T12:57:25.040Z,5.82
2022-10-24T13:00:25.912Z,3.95
2022-10-24T13:03:23.200Z,7.18
2022-10-24T13:06:17.167Z,3.03
2022-10-24T13:09:18.099Z,3.63
2022-10-24T13:12:16.457Z,4.95
2022-10-24T13:15:24.425Z,7.22
2022-10-24T13:18:38.246Z,5.93
2022-10-24T13:21:31.173Z,5.95
2022-10-24T13:24:37.444Z,5.47
2022-10-24T13:27:31.950Z,6.60
2022-10-24T13:30:28.313Z,7.72
2022-10-24T13:33:43.733Z,10.32
2022-10-24T13:36:33.503Z,5.28
2022-10-24T13:39:25.833Z,5.60
2022-10-24T13:42:36.322Z,6.38
2022-10-24T13:45:30.061Z,8.38
2022-10-24T13:48:20.638Z,5.63
2022-10-24T13:51:18.463Z,5.35
2022-10-24T13:54:12.520Z,10.18
2022-10-24T13:57:02.212Z,6.22
2022-10-24T13:59:56.272Z,9.50
2022-10-24T14:02:44.204Z,4.30
2022-10-24T14:05:38.890Z,6.43
2022-10-24T14:08:31.262Z,5.22
2022-10-24T14:11:23.525Z,6.13
2022-10-24T14:14:25.695Z,5.90
2022-10-24T14:17:23.555Z,5.60
2022-10-24T14:37:31.628Z,9.45
2022-10-24T14:40:20.062Z,7.35
2022-10-24T14:43:13.898Z,7.60
2022-10-24T14:46:10.513Z,7.45
2022-10-24T14:49:02.499Z,6.00
2022-10-24T14:54:44.396Z,5.82
2022-10-24T14:57:34.487Z,4.97
2022-10-24T15:00:25.698Z,6.35
2022-10-24T15:03:13.554Z,9.07
2022-10-24T15:06:09.854Z,5.15
2022-10-24T15:09:07.412Z,8.02
2022-10-24T15:12:03.062Z,5.03
2022-10-24T15:14:53.503Z,8.90
2022-10-24T15:17:42.868Z,5.45
2022-10-24T15:20:36.092Z,6.45
2022-10-24T15:23:28.896Z,6.60
2022-10-24T15:26:21.618Z,5.80
2022-10-24T15:29:19.190Z,7.53
2022-10-24T15:32:10.665Z,5.72
2022-10-24T15:34:59.972Z,6.50
2022-10-24T15:37:55.457Z,6.28
2022-10-24T15:40:45.960Z,7.95
2022-10-24T15:43:34.860Z,7.80
2022-10-24T15:46:23.100Z,8.43
2022-10-24T15:54:47.694Z,6.00
2022-10-24T15:57:36.377Z,6.05
2022-10-24T16:00:25.043Z,4.60
2022-10-24T16:03:16.768Z,6.30
2022-10-24T16:06:04.726Z,6.43
2022-10-24T16:08:53.700Z,11.77
2022-10-24T16:11:41.503Z,7.05
2022-10-24T16:14:30.469Z,5.32
2022-10-24T16:17:18.296Z,9.77
2022-10-24T16:20:06.778Z,6.25
2022-10-24T16:22:55.013Z,4.70
2022-10-24T16:25:44.391Z,6.50
2022-10-24T16:28:32.121Z,14.20
2022-10-24T16:31:23.522Z,20.75
2022-10-24T16:34:11.492Z,9.77
2022-10-24T16:36:59.007Z,11.00
2022-10-24T16:39:46.485Z,11.95
2022-10-24T16:42:35.809Z,11.45
2022-10-24T16:45:24.276Z,14.43
2022-10-24T16:48:12.216Z,10.68
2022-10-24T16:51:00.228Z,8.85
2022-10-24T16:53:48.039Z,8.55
2022-10-24T16:56:35.909Z,8.18
2022-10-24T16:59:26.329Z,8.13
2022-10-24T17:02:16.483Z,6.70
2022-10-24T17:05:04.141Z,6.93
2022-10-24T17:07:52.435Z,8.43
2022-10-24T17:10:40.296Z,10.52
2022-10-24T17:13:29.498Z,6.10
2022-10-24T17:16:18.802Z,6.82
2022-10-24T17:19:15.729Z,7.13
2022-10-24T17:22:04.546Z,5.60
2022-10-24T17:24:52.616Z,6.10
2022-10-24T17:27:40.351Z,5.50
2022-10-24T17:30:29.826Z,9.68
2022-10-24T17:33:19.480Z,9.15
2022-10-24T17:36:15.305Z,12.98
2022-10-24T17:39:10.163Z,11.68
2022-10-24T17:41:58.855Z,18.92
2022-10-24T17:44:47.761Z,22.50
2022-10-24T17:47:35.472Z,18.23
2022-10-24T17:50:24.733Z,21.75
2022-10-24T17:53:13.029Z,15.18
2022-10-24T17:56:00.966Z,13.45
2022-10-24T17:58:50.698Z,13.73
2022-10-24T18:01:38.651Z,15.68
2022-10-24T18:04:26.381Z,18.00
2022-10-24T23:25:03.600Z,12.02
2022-10-24T23:30:42.772Z,10.90
2022-10-24T23:39:14.383Z,10.27
